Abbotsford, British Columbia

7:27 PM PDT on September 14, 2014 (GMT -0700)
Abbotsford | Change Station
CLOSE
Current Station
Airport
Location: Abbotsford,
Elevation: 194 ft
Nearby Weather Stations

Elev 194 ft 49.03 °N, 122.38 °W | Updated 27 minutes ago

Clear
Clear
75 °F
Feels Like 75 °F
N
4
Wind Variable Wind from SW

Today
High -- | Low -- °F
--% Chance of Precip.
Yesterday
High -- | Low -- °F
Precip. -- in
6:44 AM 7:24 PM
Waning Gibbous, 60% visible
Pressure 29.86 in
Visibility 30.0 miles
Clouds Clear
Dew Point 52 °F
Humidity 44%
Rainfall 0.00 in
Snow Depth Not available.
UV 0 out of 12
Pollen Not available.
Air Quality Not available.
Flu Activity Not available.
METAR CYXX 150200Z 23003KT 220V290 30SM SKC 24/11 A2986 RMK SLP111 DENSITY ALT 1300FT

More Conditions Fewer Conditions

Pressure 29.86 in
Visibility 30.0 miles
Clouds Clear
Dew Point 52 °F
Humidity 44%
Rainfall 0.00 in
Snow Depth Not available.
UV 0 out of 12
Pollen Not available.
Air Quality Not available.
Flu Activity Not available.
METAR CYXX 150200Z 23003KT 220V290 30SM SKC 24/11 A2986 RMK SLP111 DENSITY ALT 1300FT

More Conditions Fewer Conditions

10-Day Weather Forecast

Almanac

Astronomy

Sep. 14, 2014 Rise Set
Actual Time 6:44 AM PDT 7:24 PM PDT
Civil Twilight 6:12 AM PDT 7:56 PM PDT
Nautical Twilight 5:34 AM PDT 8:34 PM PDT
Astronomical Twilight 4:54 AM PDT 9:13 PM PDT
Moon 10:51 PM PDT (9/14) 1:25 PM PDT (9/14)
Length of Visible Light 13h 43m
Length of Day
12h 39m
Tomorrow will be 3m 33s shorter.
Waning Gibbous, 60% of the Moon is Illuminated
Today
Waning Gibbous
Sep 15
Last Quarter
Sep 24
New
Oct 1
First Quarter
Oct 8
Full

Today's Extremes

Country Highs Country Lows

Community

WunderPhotos

Upload Photos

1,753,381 photos uploaded!

Nearby

Snow Depth

Not available.

Earthquake Activity

City Distance Mag. Time & Date
No recent earthquake activity has been reported nearby.
Minimum magnitude displayed is 2.5.

Coastal Water Temperatures

Place Temperature
No Stations Reporting

Nearby Weather Stations